Packwood, WA

8:15 PM PDT on August 27, 2016 (GMT -0700)
APRSWXNET | | Change Station

Elev 1289 ft 46.61 °N, 121.66 °W | Updated 62 days ago

Partly Cloudy
Partly Cloudy
60 °F
Feels Like 60 °F
N
9
Wind Variable Wind from WSW
Gusts mph

Today
High -- | Low -- °F
--% Chance of Precip.
Yesterday
High -- | Low -- °F
Precip. -- in
Pressure 29.96 in
Visibility -9999.0 miles
Clouds Clear
Dew Point 50 °F
Humidity 69%
Rainfall in
Snow Depth Not available.
6:20 AM 7:54 PM
Waning Crescent, 19% visible
METAR KPLU 280255Z AUTO 27005KT CLR 18/12 A2996 RMK AO2
Pressure 29.96 in
Visibility -9999.0 miles
Clouds Clear
Dew Point 50 °F
Humidity 69%
Rainfall in
Snow Depth Not available.
6:20 AM 7:54 PM
Waning Crescent, 19% visible
METAR KPLU 280255Z AUTO 27005KT CLR 18/12 A2996 RMK AO2

10-Day Weather Forecast

Almanac

Astronomy

Aug. 27, 2016 Rise Set
Actual Time
Civil Twilight
Nautical Twilight
Astronomical Twilight
Moon
Length of Visible Light
Length of Day
Tomorrow will be .
, % of the Moon is Illuminated

Today's Extremes

State Highs State Lows

Community

WunderPhotos

Upload Photos

1,935,512 photos uploaded!

WunderBlog® & News

Nearby

Air Quality

  Air Quality AQ Index Pollutant
Not available.

Snow Depth

Station Depth Elevation

Earthquake Activity

City Distance Mag. Time & Date
Minimum magnitude displayed is 2.5.

Coastal Water Temperatures

Place Temperature

Stations

Nearby Weather Stations

Station Location Temp. Windchill Dew Point Humidity Wind Precip. Elev Updated Type
                   

Watches & Warnings

There are currently no watches in effect.